IBE265 LEAL-LEST
Flight info
| Callsign | IBE265 |
|---|---|
| Flight time | 1h 10m |
| Altitude | 32000 |
| Route | ASTRO L150 CJN DCT DISKO DCT UNSOL DCT ZANKO DCT ZMR DCT DESAT DCT FORNO |
| Aircraft | A21N/M-SDE2E3FGHIRWXY/LB1 |
Departure
| Time | 2026-04-25 06:17 |
|---|---|
| Airport | Alicante-Elche Miguel Hernández Airport (LEAL) |
Arrival
| Time | 2026-04-25 07:28 |
|---|---|
| Airport | Santiago-Rosalía de Castro Airport (LEST) |
| Time | Latitude | Longitude | Altitude | Speed | Heading |
|---|---|---|---|---|---|
| 2026-04-25 06:10 | 38.28453 | -0.55743 | 101 ft | 0 kts | 10° |
| 2026-04-25 06:14 | 38.28495 | -0.55723 | 102 ft | 13 kts | 44° |
| 2026-04-25 06:14 | 38.28472 | -0.55611 | 101 ft | 16 kts | 165° |
| 2026-04-25 06:14 | 38.28377 | -0.55598 | 103 ft | 9 kts | 139° |
| 2026-04-25 06:15 | 38.28349 | -0.55467 | 97 ft | 24 kts | 100° |
| 2026-04-25 06:15 | 38.28311 | -0.55200 | 93 ft | 37 kts | 100° |
| 2026-04-25 06:15 | 38.28262 | -0.54850 | 75 ft | 36 kts | 100° |
| 2026-04-25 06:15 | 38.28217 | -0.54515 | 66 ft | 26 kts | 101° |
| 2026-04-25 06:16 | 38.28131 | -0.54453 | 65 ft | 0 kts | 189° |
| 2026-04-25 06:16 | 38.28128 | -0.54454 | 65 ft | 5 kts | 191° |
| 2026-04-25 06:16 | 38.28054 | -0.54488 | 63 ft | 16 kts | 227° |
| 2026-04-25 06:17 | 38.28061 | -0.54680 | 72 ft | 47 kts | 282° |
| 2026-04-25 06:17 | 38.28171 | -0.55474 | 99 ft | 137 kts | 280° |
| 2026-04-25 06:17 | 38.28356 | -0.56948 | 324 ft | 187 kts | 286° |
| 2026-04-25 06:17 | 38.28619 | -0.58554 | 1168 ft | 181 kts | 285° |
| 2026-04-25 06:18 | 38.28909 | -0.60174 | 2005 ft | 203 kts | 283° |
| 2026-04-25 06:18 | 38.29205 | -0.62018 | 2926 ft | 221 kts | 283° |
| 2026-04-25 06:18 | 38.29510 | -0.63989 | 4175 ft | 230 kts | 282° |
| 2026-04-25 06:18 | 38.29822 | -0.65989 | 5656 ft | 233 kts | 283° |
| 2026-04-25 06:19 | 38.30435 | -0.68005 | 6690 ft | 259 kts | 303° |
| 2026-04-25 06:19 | 38.31639 | -0.69817 | 7704 ft | 277 kts | 317° |
| 2026-04-25 06:19 | 38.33150 | -0.71433 | 8910 ft | 289 kts | 325° |
| 2026-04-25 06:19 | 38.34831 | -0.72918 | 10177 ft | 298 kts | 329° |
| 2026-04-25 06:20 | 38.36642 | -0.74386 | 11114 ft | 319 kts | 330° |
| 2026-04-25 06:20 | 38.38567 | -0.75922 | 12112 ft | 333 kts | 330° |
| 2026-04-25 06:20 | 38.40537 | -0.77524 | 13399 ft | 337 kts | 329° |
| 2026-04-25 06:20 | 38.42521 | -0.79180 | 14640 ft | 343 kts | 328° |
| 2026-04-25 06:21 | 38.44523 | -0.80890 | 15748 ft | 350 kts | 328° |
| 2026-04-25 06:21 | 38.46558 | -0.82652 | 16869 ft | 356 kts | 327° |
| 2026-04-25 06:21 | 38.48618 | -0.84450 | 17987 ft | 362 kts | 327° |
| 2026-04-25 06:21 | 38.50685 | -0.86261 | 18965 ft | 368 kts | 327° |
| 2026-04-25 06:22 | 38.52818 | -0.88130 | 19864 ft | 375 kts | 327° |
| 2026-04-25 06:22 | 38.54989 | -0.90032 | 20773 ft | 381 kts | 327° |
| 2026-04-25 06:22 | 38.57192 | -0.91962 | 21675 ft | 388 kts | 326° |
| 2026-04-25 06:22 | 38.59437 | -0.93927 | 22574 ft | 394 kts | 326° |
| 2026-04-25 06:23 | 38.61716 | -0.95923 | 23467 ft | 400 kts | 326° |
| 2026-04-25 06:23 | 38.64028 | -0.97948 | 24218 ft | 406 kts | 326° |
| 2026-04-25 06:23 | 38.66377 | -1.00007 | 24931 ft | 411 kts | 326° |
| 2026-04-25 06:23 | 38.68752 | -1.02091 | 25644 ft | 415 kts | 326° |
| 2026-04-25 06:24 | 38.71119 | -1.04169 | 26335 ft | 418 kts | 326° |
| 2026-04-25 06:24 | 38.73529 | -1.06288 | 27022 ft | 422 kts | 326° |
| 2026-04-25 06:24 | 38.75964 | -1.08430 | 27675 ft | 426 kts | 326° |
| 2026-04-25 06:24 | 38.78415 | -1.10588 | 28305 ft | 429 kts | 326° |
| 2026-04-25 06:25 | 38.80885 | -1.12765 | 28912 ft | 433 kts | 326° |
| 2026-04-25 06:25 | 38.83378 | -1.14963 | 29506 ft | 437 kts | 326° |
| 2026-04-25 06:25 | 38.85898 | -1.17188 | 30015 ft | 442 kts | 326° |
| 2026-04-25 06:25 | 38.88443 | -1.19436 | 30515 ft | 446 kts | 325° |
| 2026-04-25 06:26 | 38.90987 | -1.21687 | 31190 ft | 442 kts | 326° |
| 2026-04-25 06:26 | 38.93518 | -1.23928 | 31812 ft | 441 kts | 325° |
| 2026-04-25 06:26 | 38.96043 | -1.26163 | 32086 ft | 440 kts | 325° |
| 2026-04-25 06:27 | 39.01084 | -1.30634 | 32132 ft | 440 kts | 325° |
| 2026-04-25 06:27 | 39.06105 | -1.35095 | 32135 ft | 441 kts | 325° |
| 2026-04-25 06:28 | 39.11156 | -1.39590 | 32132 ft | 441 kts | 325° |
| 2026-04-25 06:28 | 39.16191 | -1.44080 | 32132 ft | 438 kts | 325° |
| 2026-04-25 06:29 | 39.21191 | -1.48546 | 32131 ft | 437 kts | 325° |
| 2026-04-25 06:29 | 39.26185 | -1.53015 | 32139 ft | 437 kts | 324° |
| 2026-04-25 06:30 | 39.31167 | -1.57481 | 32131 ft | 439 kts | 325° |
| 2026-04-25 06:30 | 39.36178 | -1.61981 | 32130 ft | 438 kts | 325° |
| 2026-04-25 06:31 | 39.41172 | -1.66472 | 32130 ft | 437 kts | 325° |
| 2026-04-25 06:31 | 39.46162 | -1.70970 | 32130 ft | 436 kts | 325° |
| 2026-04-25 06:32 | 39.51149 | -1.75471 | 32127 ft | 436 kts | 324° |
| 2026-04-25 06:32 | 39.56132 | -1.79978 | 32124 ft | 449 kts | 324° |
| 2026-04-25 06:32 | 39.58732 | -1.82334 | 32121 ft | 462 kts | 325° |
| 2026-04-25 06:33 | 39.61407 | -1.84759 | 32122 ft | 473 kts | 325° |
| 2026-04-25 06:33 | 39.66826 | -1.89677 | 32124 ft | 475 kts | 325° |
| 2026-04-25 06:34 | 39.72260 | -1.94618 | 32125 ft | 478 kts | 325° |
| 2026-04-25 06:34 | 39.77726 | -1.99599 | 32124 ft | 480 kts | 325° |
| 2026-04-25 06:35 | 39.83153 | -2.04554 | 32122 ft | 478 kts | 325° |
| 2026-04-25 06:35 | 39.88601 | -2.09539 | 32121 ft | 478 kts | 325° |
| 2026-04-25 06:36 | 39.94038 | -2.14524 | 32122 ft | 478 kts | 325° |
| 2026-04-25 06:36 | 39.98558 | -2.18676 | 32121 ft | 478 kts | 325° |
| 2026-04-25 06:37 | 40.04003 | -2.23685 | 32120 ft | 477 kts | 324° |
| 2026-04-25 06:37 | 40.09429 | -2.28688 | 32122 ft | 477 kts | 324° |
| 2026-04-25 06:38 | 40.14869 | -2.33713 | 32120 ft | 479 kts | 324° |
| 2026-04-25 06:38 | 40.20285 | -2.38727 | 32121 ft | 480 kts | 324° |
| 2026-04-25 06:39 | 40.25732 | -2.43778 | 32116 ft | 480 kts | 324° |
| 2026-04-25 06:39 | 40.31175 | -2.48837 | 32119 ft | 480 kts | 324° |
| 2026-04-25 06:40 | 40.36288 | -2.54409 | 32120 ft | 478 kts | 311° |
| 2026-04-25 06:40 | 40.40031 | -2.61580 | 32120 ft | 477 kts | 298° |
| 2026-04-25 06:41 | 40.43137 | -2.69256 | 32121 ft | 477 kts | 296° |
| 2026-04-25 06:41 | 40.46131 | -2.77048 | 32124 ft | 477 kts | 295° |
| 2026-04-25 06:42 | 40.49109 | -2.84782 | 32127 ft | 477 kts | 296° |
| 2026-04-25 06:42 | 40.52123 | -2.92552 | 32127 ft | 477 kts | 296° |
| 2026-04-25 06:43 | 40.55143 | -3.00320 | 32128 ft | 477 kts | 296° |
| 2026-04-25 06:43 | 40.58162 | -3.08099 | 32133 ft | 477 kts | 295° |
| 2026-04-25 06:44 | 40.61160 | -3.15852 | 32130 ft | 478 kts | 295° |
| 2026-04-25 06:44 | 40.64179 | -3.23680 | 32132 ft | 478 kts | 295° |
| 2026-04-25 06:45 | 40.67187 | -3.31502 | 32131 ft | 478 kts | 295° |
| 2026-04-25 06:45 | 40.70185 | -3.39319 | 32133 ft | 478 kts | 295° |
| 2026-04-25 06:46 | 40.73158 | -3.47090 | 32132 ft | 478 kts | 295° |
| 2026-04-25 06:46 | 40.76151 | -3.54934 | 32133 ft | 479 kts | 295° |
| 2026-04-25 06:47 | 40.79139 | -3.62786 | 32140 ft | 479 kts | 295° |
| 2026-04-25 06:47 | 40.82122 | -3.70646 | 32137 ft | 479 kts | 295° |
| 2026-04-25 06:48 | 40.85099 | -3.78510 | 32138 ft | 478 kts | 295° |
| 2026-04-25 06:48 | 40.88060 | -3.86354 | 32142 ft | 475 kts | 295° |
| 2026-04-25 06:49 | 40.91003 | -3.94172 | 32143 ft | 473 kts | 295° |
| 2026-04-25 06:49 | 40.93930 | -4.01970 | 32146 ft | 473 kts | 295° |
| 2026-04-25 06:50 | 40.96833 | -4.09722 | 32145 ft | 473 kts | 295° |
| 2026-04-25 06:50 | 40.99752 | -4.17537 | 32145 ft | 473 kts | 295° |
| 2026-04-25 06:51 | 41.02668 | -4.25364 | 32152 ft | 473 kts | 295° |
| 2026-04-25 06:51 | 41.05581 | -4.33197 | 32148 ft | 473 kts | 295° |
| 2026-04-25 06:52 | 41.08457 | -4.40948 | 32149 ft | 471 kts | 295° |
| 2026-04-25 06:52 | 41.11340 | -4.48742 | 32148 ft | 470 kts | 295° |
| 2026-04-25 06:53 | 41.14220 | -4.56547 | 32149 ft | 470 kts | 295° |
| 2026-04-25 06:53 | 41.17096 | -4.64367 | 32145 ft | 472 kts | 295° |
| 2026-04-25 06:54 | 41.19975 | -4.72222 | 32146 ft | 473 kts | 295° |
| 2026-04-25 06:54 | 41.22853 | -4.80094 | 32143 ft | 473 kts | 295° |
| 2026-04-25 06:55 | 41.25705 | -4.87914 | 32146 ft | 473 kts | 294° |
| 2026-04-25 06:55 | 41.28570 | -4.95794 | 32152 ft | 472 kts | 294° |
| 2026-04-25 06:56 | 41.31421 | -5.03656 | 32141 ft | 471 kts | 294° |
| 2026-04-25 06:56 | 41.34263 | -5.11516 | 32140 ft | 471 kts | 294° |
| 2026-04-25 06:57 | 41.37101 | -5.19386 | 32143 ft | 471 kts | 294° |
| 2026-04-25 06:57 | 41.39917 | -5.27217 | 32146 ft | 471 kts | 294° |
| 2026-04-25 06:58 | 41.42744 | -5.35101 | 32150 ft | 471 kts | 294° |
| 2026-04-25 06:58 | 41.45555 | -5.42957 | 32148 ft | 468 kts | 294° |
| 2026-04-25 06:59 | 41.48337 | -5.50758 | 32151 ft | 468 kts | 294° |
| 2026-04-25 06:59 | 41.51126 | -5.58601 | 32151 ft | 468 kts | 294° |
| 2026-04-25 07:00 | 41.54272 | -5.66201 | 32157 ft | 469 kts | 301° |
| 2026-04-25 07:00 | 41.57932 | -5.73420 | 32154 ft | 468 kts | 303° |
| 2026-04-25 07:01 | 41.61665 | -5.80528 | 32153 ft | 466 kts | 304° |
| 2026-04-25 07:01 | 41.65364 | -5.87565 | 32154 ft | 464 kts | 303° |
| 2026-04-25 07:02 | 41.69060 | -5.94643 | 32149 ft | 463 kts | 303° |
| 2026-04-25 07:02 | 41.72741 | -6.01731 | 32151 ft | 463 kts | 303° |
| 2026-04-25 07:03 | 41.76415 | -6.08827 | 32150 ft | 463 kts | 303° |
| 2026-04-25 07:03 | 41.80044 | -6.15856 | 32152 ft | 460 kts | 304° |
| 2026-04-25 07:04 | 41.83673 | -6.22894 | 32154 ft | 458 kts | 304° |
| 2026-04-25 07:04 | 41.87282 | -6.29916 | 32158 ft | 456 kts | 304° |
| 2026-04-25 07:05 | 41.90883 | -6.36939 | 32152 ft | 456 kts | 304° |
| 2026-04-25 07:05 | 41.94480 | -6.43967 | 32156 ft | 456 kts | 304° |
| 2026-04-25 07:06 | 41.98068 | -6.50996 | 32156 ft | 455 kts | 305° |
| 2026-04-25 07:06 | 42.01642 | -6.58012 | 32157 ft | 454 kts | 305° |
| 2026-04-25 07:07 | 42.05174 | -6.64964 | 31767 ft | 448 kts | 305° |
| 2026-04-25 07:07 | 42.06923 | -6.68412 | 30697 ft | 447 kts | 305° |
| 2026-04-25 07:07 | 42.08693 | -6.71904 | 29648 ft | 458 kts | 305° |
| 2026-04-25 07:07 | 42.10499 | -6.75471 | 29215 ft | 461 kts | 305° |
| 2026-04-25 07:08 | 42.12293 | -6.79020 | 28694 ft | 456 kts | 305° |
| 2026-04-25 07:08 | 42.14071 | -6.82543 | 28132 ft | 453 kts | 305° |
| 2026-04-25 07:08 | 42.15833 | -6.86037 | 27576 ft | 449 kts | 305° |
| 2026-04-25 07:08 | 42.17576 | -6.89498 | 27019 ft | 444 kts | 305° |
| 2026-04-25 07:09 | 42.19306 | -6.92937 | 26486 ft | 441 kts | 305° |
| 2026-04-25 07:09 | 42.21020 | -6.96346 | 25946 ft | 437 kts | 305° |
| 2026-04-25 07:09 | 42.22721 | -6.99734 | 25410 ft | 434 kts | 305° |
| 2026-04-25 07:09 | 42.24408 | -7.03097 | 24870 ft | 430 kts | 305° |
| 2026-04-25 07:10 | 42.26080 | -7.06436 | 24319 ft | 427 kts | 305° |
| 2026-04-25 07:10 | 42.27744 | -7.09759 | 23796 ft | 424 kts | 305° |
| 2026-04-25 07:10 | 42.29388 | -7.13049 | 23176 ft | 421 kts | 305° |
| 2026-04-25 07:10 | 42.31022 | -7.16321 | 22656 ft | 418 kts | 305° |
| 2026-04-25 07:11 | 42.32643 | -7.19572 | 22116 ft | 415 kts | 305° |
| 2026-04-25 07:11 | 42.34246 | -7.22788 | 21590 ft | 412 kts | 304° |
| 2026-04-25 07:11 | 42.35823 | -7.25956 | 21066 ft | 408 kts | 304° |
| 2026-04-25 07:11 | 42.37403 | -7.29134 | 20546 ft | 406 kts | 304° |
| 2026-04-25 07:12 | 42.38972 | -7.32293 | 20027 ft | 403 kts | 304° |
| 2026-04-25 07:12 | 42.42067 | -7.38535 | 18477 ft | 393 kts | 304° |
| 2026-04-25 07:12 | 42.43574 | -7.41579 | 17540 ft | 386 kts | 304° |
| 2026-04-25 07:13 | 42.45059 | -7.44583 | 16601 ft | 381 kts | 304° |
| 2026-04-25 07:13 | 42.46451 | -7.47578 | 16062 ft | 367 kts | 297° |
| 2026-04-25 07:13 | 42.47325 | -7.50678 | 15763 ft | 348 kts | 287° |
| 2026-04-25 07:13 | 42.47966 | -7.53756 | 15442 ft | 332 kts | 285° |
| 2026-04-25 07:14 | 42.48550 | -7.56744 | 14917 ft | 325 kts | 285° |
| 2026-04-25 07:14 | 42.49122 | -7.59687 | 14316 ft | 321 kts | 285° |
| 2026-04-25 07:14 | 42.49691 | -7.62599 | 13720 ft | 317 kts | 284° |
| 2026-04-25 07:14 | 42.50253 | -7.65467 | 13038 ft | 314 kts | 284° |
| 2026-04-25 07:15 | 42.50815 | -7.68329 | 12329 ft | 313 kts | 284° |
| 2026-04-25 07:15 | 42.51373 | -7.71172 | 11668 ft | 311 kts | 284° |
| 2026-04-25 07:15 | 42.51928 | -7.73992 | 11038 ft | 309 kts | 284° |
| 2026-04-25 07:15 | 42.52480 | -7.76803 | 10409 ft | 307 kts | 284° |
| 2026-04-25 07:16 | 42.53026 | -7.79589 | 9747 ft | 305 kts | 284° |
| 2026-04-25 07:16 | 42.53568 | -7.82362 | 9085 ft | 302 kts | 284° |
| 2026-04-25 07:16 | 42.54098 | -7.85069 | 8621 ft | 292 kts | 284° |
| 2026-04-25 07:16 | 42.54606 | -7.87673 | 8092 ft | 287 kts | 284° |
| 2026-04-25 07:17 | 42.55114 | -7.90278 | 7503 ft | 284 kts | 284° |
| 2026-04-25 07:17 | 42.55619 | -7.92867 | 6941 ft | 282 kts | 284° |
| 2026-04-25 07:17 | 42.56115 | -7.95417 | 6389 ft | 278 kts | 285° |
| 2026-04-25 07:17 | 42.56607 | -7.97950 | 5875 ft | 277 kts | 285° |
| 2026-04-25 07:18 | 42.57097 | -8.00480 | 5548 ft | 278 kts | 285° |
| 2026-04-25 07:18 | 42.57591 | -8.03022 | 5467 ft | 278 kts | 285° |
| 2026-04-25 07:18 | 42.58082 | -8.05558 | 5477 ft | 277 kts | 285° |
| 2026-04-25 07:18 | 42.58573 | -8.08099 | 5476 ft | 278 kts | 285° |
| 2026-04-25 07:19 | 42.59058 | -8.10609 | 5476 ft | 278 kts | 285° |
| 2026-04-25 07:19 | 42.59549 | -8.13149 | 5467 ft | 278 kts | 285° |
| 2026-04-25 07:19 | 42.60037 | -8.15682 | 5461 ft | 277 kts | 285° |
| 2026-04-25 07:19 | 42.60520 | -8.18194 | 5478 ft | 267 kts | 285° |
| 2026-04-25 07:20 | 42.60969 | -8.20538 | 5493 ft | 247 kts | 285° |
| 2026-04-25 07:20 | 42.61400 | -8.22783 | 5478 ft | 245 kts | 285° |
| 2026-04-25 07:20 | 42.61823 | -8.24992 | 5470 ft | 234 kts | 285° |
| 2026-04-25 07:20 | 42.62224 | -8.27086 | 5483 ft | 225 kts | 285° |
| 2026-04-25 07:21 | 42.62614 | -8.29123 | 5470 ft | 222 kts | 285° |
| 2026-04-25 07:21 | 42.63120 | -8.31078 | 5456 ft | 223 kts | 297° |
| 2026-04-25 07:21 | 42.64041 | -8.32745 | 5456 ft | 216 kts | 319° |
| 2026-04-25 07:21 | 42.65235 | -8.33754 | 5377 ft | 192 kts | 340° |
| 2026-04-25 07:22 | 42.66459 | -8.34220 | 5156 ft | 174 kts | 350° |
| 2026-04-25 07:22 | 42.67655 | -8.34378 | 5078 ft | 173 kts | 356° |
| 2026-04-25 07:22 | 42.68858 | -8.34571 | 5063 ft | 174 kts | 355° |
| 2026-04-25 07:22 | 42.70062 | -8.34823 | 5060 ft | 175 kts | 351° |
| 2026-04-25 07:23 | 42.71247 | -8.35213 | 5058 ft | 175 kts | 349° |
| 2026-04-25 07:23 | 42.72409 | -8.35666 | 4796 ft | 173 kts | 345° |
| 2026-04-25 07:23 | 42.73169 | -8.35980 | 4491 ft | 172 kts | 346° |
| 2026-04-25 07:23 | 42.74325 | -8.36379 | 4063 ft | 171 kts | 349° |
| 2026-04-25 07:24 | 42.75855 | -8.36876 | 3724 ft | 170 kts | 349° |
| 2026-04-25 07:24 | 42.76631 | -8.37138 | 3578 ft | 169 kts | 349° |
| 2026-04-25 07:24 | 42.77757 | -8.37517 | 3372 ft | 168 kts | 350° |
| 2026-04-25 07:24 | 42.78866 | -8.37892 | 3140 ft | 154 kts | 351° |
| 2026-04-25 07:25 | 42.79857 | -8.38226 | 2960 ft | 142 kts | 351° |
| 2026-04-25 07:25 | 42.80805 | -8.38542 | 2776 ft | 139 kts | 351° |
| 2026-04-25 07:25 | 42.81750 | -8.38858 | 2591 ft | 140 kts | 350° |
| 2026-04-25 07:25 | 42.82696 | -8.39176 | 2397 ft | 139 kts | 350° |
| 2026-04-25 07:26 | 42.83627 | -8.39490 | 2213 ft | 137 kts | 350° |
| 2026-04-25 07:26 | 42.84542 | -8.39797 | 2034 ft | 137 kts | 350° |
| 2026-04-25 07:26 | 42.85461 | -8.40107 | 1844 ft | 135 kts | 350° |
| 2026-04-25 07:26 | 42.86366 | -8.40409 | 1592 ft | 133 kts | 348° |
| 2026-04-25 07:27 | 42.87259 | -8.40730 | 1380 ft | 134 kts | 346° |
| 2026-04-25 07:27 | 42.88170 | -8.41018 | 1284 ft | 134 kts | 348° |
| 2026-04-25 07:27 | 42.89065 | -8.41319 | 1199 ft | 131 kts | 347° |
| 2026-04-25 07:27 | 42.89802 | -8.41577 | 1194 ft | 68 kts | 345° |
| 2026-04-25 07:28 | 42.90013 | -8.41678 | 1195 ft | 17 kts | 300° |
| 2026-04-25 07:28 | 42.90000 | -8.41816 | 1198 ft | 12 kts | 248° |
| 2026-04-25 07:28 | 42.89901 | -8.41837 | 1200 ft | 29 kts | 166° |
| 2026-04-25 07:28 | 42.89714 | -8.41772 | 1200 ft | 31 kts | 166° |
| 2026-04-25 07:29 | 42.89503 | -8.41713 | 1201 ft | 25 kts | 192° |
| 2026-04-25 07:29 | 42.89400 | -8.41799 | 1208 ft | 16 kts | 225° |
| 2026-04-25 07:29 | 42.89358 | -8.41867 | 1209 ft | 0 kts | 230° |